sensor_id;sensor_type;location;lat;lon;timestamp;temperature;humidity
66752;SHT31;53663;42.676;23.238;2023-07-16T00:00:57;23.51;76.42
66752;SHT31;53663;42.676;23.238;2023-07-16T00:03:23;23.43;76.62
66752;SHT31;53663;42.676;23.238;2023-07-16T00:05:51;23.46;76.65
66752;SHT31;53663;42.676;23.238;2023-07-16T00:08:16;23.39;76.72
66752;SHT31;53663;42.676;23.238;2023-07-16T00:10:42;23.41;76.39
66752;SHT31;53663;42.676;23.238;2023-07-16T00:13:08;23.41;76.28
66752;SHT31;53663;42.676;23.238;2023-07-16T00:15:33;23.41;76.34
66752;SHT31;53663;42.676;23.238;2023-07-16T00:17:59;23.41;76.03
66752;SHT31;53663;42.676;23.238;2023-07-16T00:20:24;23.38;76.23
66752;SHT31;53663;42.676;23.238;2023-07-16T00:22:51;23.41;76.07
66752;SHT31;53663;42.676;23.238;2023-07-16T00:25:16;23.39;75.97
66752;SHT31;53663;42.676;23.238;2023-07-16T00:27:42;23.35;76.38
66752;SHT31;53663;42.676;23.238;2023-07-16T00:30:08;23.35;76.37
66752;SHT31;53663;42.676;23.238;2023-07-16T00:32:34;23.29;76.44
66752;SHT31;53663;42.676;23.238;2023-07-16T00:35:03;23.32;76.57
66752;SHT31;53663;42.676;23.238;2023-07-16T00:37:29;23.28;76.66
66752;SHT31;53663;42.676;23.238;2023-07-16T00:39:54;23.26;76.51
66752;SHT31;53663;42.676;23.238;2023-07-16T00:42:21;23.22;76.97
66752;SHT31;53663;42.676;23.238;2023-07-16T00:44:47;23.22;76.94
66752;SHT31;53663;42.676;23.238;2023-07-16T00:47:12;23.15;76.95
66752;SHT31;53663;42.676;23.238;2023-07-16T00:49:38;23.18;76.90
66752;SHT31;53663;42.676;23.238;2023-07-16T00:52:05;23.14;76.94
66752;SHT31;53663;42.676;23.238;2023-07-16T00:54:33;23.10;77.09
66752;SHT31;53663;42.676;23.238;2023-07-16T00:56:59;23.10;77.30
66752;SHT31;53663;42.676;23.238;2023-07-16T00:59:24;23.12;76.99
66752;SHT31;53663;42.676;23.238;2023-07-16T01:01:50;23.07;77.10
66752;SHT31;53663;42.676;23.238;2023-07-16T01:04:16;23.04;77.10
66752;SHT31;53663;42.676;23.238;2023-07-16T01:06:46;23.03;77.33
66752;SHT31;53663;42.676;23.238;2023-07-16T01:09:20;23.00;77.22
66752;SHT31;53663;42.676;23.238;2023-07-16T01:11:47;22.98;77.11
66752;SHT31;53663;42.676;23.238;2023-07-16T01:14:13;22.97;77.14
66752;SHT31;53663;42.676;23.238;2023-07-16T01:16:41;22.94;77.06
66752;SHT31;53663;42.676;23.238;2023-07-16T01:19:06;22.90;76.96
66752;SHT31;53663;42.676;23.238;2023-07-16T01:29:33;22.83;76.94
66752;SHT31;53663;42.676;23.238;2023-07-16T01:32:03;22.71;77.05
66752;SHT31;53663;42.676;23.238;2023-07-16T01:34:32;22.68;77.02
66752;SHT31;53663;42.676;23.238;2023-07-16T01:37:02;22.64;77.36
66752;SHT31;53663;42.676;23.238;2023-07-16T01:39:29;22.66;77.30
66752;SHT31;53663;42.676;23.238;2023-07-16T01:41:55;22.68;76.85
66752;SHT31;53663;42.676;23.238;2023-07-16T01:44:21;22.68;76.94
66752;SHT31;53663;42.676;23.238;2023-07-16T01:49:37;22.53;77.20
66752;SHT31;53663;42.676;23.238;2023-07-16T01:52:04;22.53;77.24
66752;SHT31;53663;42.676;23.238;2023-07-16T01:54:32;22.53;77.19
66752;SHT31;53663;42.676;23.238;2023-07-16T01:56:58;22.49;77.20
66752;SHT31;53663;42.676;23.238;2023-07-16T01:59:23;22.43;77.51
66752;SHT31;53663;42.676;23.238;2023-07-16T02:01:49;22.46;77.41
66752;SHT31;53663;42.676;23.238;2023-07-16T02:04:15;22.37;77.71
66752;SHT31;53663;42.676;23.238;2023-07-16T02:06:40;22.37;77.69
66752;SHT31;53663;42.676;23.238;2023-07-16T02:09:06;22.40;77.69
66752;SHT31;53663;42.676;23.238;2023-07-16T02:11:31;22.28;77.72
66752;SHT31;53663;42.676;23.238;2023-07-16T02:13:57;22.25;77.98
66752;SHT31;53663;42.676;23.238;2023-07-16T02:16:22;22.22;78.06
66752;SHT31;53663;42.676;23.238;2023-07-16T02:18:48;22.15;77.93
66752;SHT31;53663;42.676;23.238;2023-07-16T02:21:13;22.12;78.28
66752;SHT31;53663;42.676;23.238;2023-07-16T02:23:39;22.19;78.24
66752;SHT31;53663;42.676;23.238;2023-07-16T02:26:04;22.19;78.05
66752;SHT31;53663;42.676;23.238;2023-07-16T02:28:30;22.22;78.02
66752;SHT31;53663;42.676;23.238;2023-07-16T02:30:56;22.19;77.94
66752;SHT31;53663;42.676;23.238;2023-07-16T02:33:21;22.12;78.20
66752;SHT31;53663;42.676;23.238;2023-07-16T02:35:47;22.12;78.12
66752;SHT31;53663;42.676;23.238;2023-07-16T02:38:15;22.15;77.50
66752;SHT31;53663;42.676;23.238;2023-07-16T02:40:48;22.16;77.71
66752;SHT31;53663;42.676;23.238;2023-07-16T02:43:14;22.12;77.63
66752;SHT31;53663;42.676;23.238;2023-07-16T02:45:40;22.12;77.57
66752;SHT31;53663;42.676;23.238;2023-07-16T02:48:06;22.12;77.49
66752;SHT31;53663;42.676;23.238;2023-07-16T02:50:36;22.13;77.24
66752;SHT31;53663;42.676;23.238;2023-07-16T02:53:06;22.12;77.08
66752;SHT31;53663;42.676;23.238;2023-07-16T02:55:32;22.09;77.18
66752;SHT31;53663;42.676;23.238;2023-07-16T02:57:58;22.01;77.41
66752;SHT31;53663;42.676;23.238;2023-07-16T03:00:23;21.99;77.41
66752;SHT31;53663;42.676;23.238;2023-07-16T03:02:49;21.88;78.09
66752;SHT31;53663;42.676;23.238;2023-07-16T03:05:16;21.84;78.26
66752;SHT31;53663;42.676;23.238;2023-07-16T03:07:42;21.92;77.99
66752;SHT31;53663;42.676;23.238;2023-07-16T03:10:08;21.92;77.84
66752;SHT31;53663;42.676;23.238;2023-07-16T03:12:33;21.87;77.97
66752;SHT31;53663;42.676;23.238;2023-07-16T03:14:59;21.87;77.74
66752;SHT31;53663;42.676;23.238;2023-07-16T03:17:24;21.91;77.61
66752;SHT31;53663;42.676;23.238;2023-07-16T03:19:50;21.92;77.55
66752;SHT31;53663;42.676;23.238;2023-07-16T03:22:16;21.91;77.42
66752;SHT31;53663;42.676;23.238;2023-07-16T03:24:42;21.92;77.42
66752;SHT31;53663;42.676;23.238;2023-07-16T03:27:07;21.94;77.31
66752;SHT31;53663;42.676;23.238;2023-07-16T03:29:33;21.95;77.34
66752;SHT31;53663;42.676;23.238;2023-07-16T03:31:59;21.97;77.09
66752;SHT31;53663;42.676;23.238;2023-07-16T03:34:25;22.01;77.04
66752;SHT31;53663;42.676;23.238;2023-07-16T03:36:51;22.01;77.06
66752;SHT31;53663;42.676;23.238;2023-07-16T03:39:17;22.05;76.12
66752;SHT31;53663;42.676;23.238;2023-07-16T03:41:42;22.08;75.95
66752;SHT31;53663;42.676;23.238;2023-07-16T03:44:08;21.98;75.98
66752;SHT31;53663;42.676;23.238;2023-07-16T03:46:35;21.92;76.13
66752;SHT31;53663;42.676;23.238;2023-07-16T03:49:01;22.09;76.16
66752;SHT31;53663;42.676;23.238;2023-07-16T03:51:26;22.22;75.72
66752;SHT31;53663;42.676;23.238;2023-07-16T03:53:53;22.33;75.55
66752;SHT31;53663;42.676;23.238;2023-07-16T03:56:18;22.36;74.62
66752;SHT31;53663;42.676;23.238;2023-07-16T03:58:44;22.37;74.57
66752;SHT31;53663;42.676;23.238;2023-07-16T04:01:09;22.53;73.91
66752;SHT31;53663;42.676;23.238;2023-07-16T04:03:35;22.56;74.19
66752;SHT31;53663;42.676;23.238;2023-07-16T04:06:05;22.63;73.72
66752;SHT31;53663;42.676;23.238;2023-07-16T04:08:31;22.66;74.52
66752;SHT31;53663;42.676;23.238;2023-07-16T04:10:57;22.78;74.63
66752;SHT31;53663;42.676;23.238;2023-07-16T04:13:23;22.68;74.84
66752;SHT31;53663;42.676;23.238;2023-07-16T04:15:49;22.83;74.64
66752;SHT31;53663;42.676;23.238;2023-07-16T04:18:14;22.91;74.62
66752;SHT31;53663;42.676;23.238;2023-07-16T04:20:40;23.03;74.52
66752;SHT31;53663;42.676;23.238;2023-07-16T04:23:05;23.11;74.65
66752;SHT31;53663;42.676;23.238;2023-07-16T04:25:31;23.21;74.23
66752;SHT31;53663;42.676;23.238;2023-07-16T04:27:56;23.39;73.17
66752;SHT31;53663;42.676;23.238;2023-07-16T04:30:22;23.45;71.77
66752;SHT31;53663;42.676;23.238;2023-07-16T04:32:47;23.70;71.23
66752;SHT31;53663;42.676;23.238;2023-07-16T04:35:13;23.82;71.41
66752;SHT31;53663;42.676;23.238;2023-07-16T04:37:39;23.92;71.67
66752;SHT31;53663;42.676;23.238;2023-07-16T04:40:05;23.66;71.07
66752;SHT31;53663;42.676;23.238;2023-07-16T04:42:31;23.86;71.17
66752;SHT31;53663;42.676;23.238;2023-07-16T04:44:56;24.17;70.67
66752;SHT31;53663;42.676;23.238;2023-07-16T04:47:21;24.62;69.46
66752;SHT31;53663;42.676;23.238;2023-07-16T04:49:47;25.37;67.33
66752;SHT31;53663;42.676;23.238;2023-07-16T04:52:13;26.19;64.83
66752;SHT31;53663;42.676;23.238;2023-07-16T04:54:38;26.92;61.61
66752;SHT31;53663;42.676;23.238;2023-07-16T04:57:06;28.04;59.46
66752;SHT31;53663;42.676;23.238;2023-07-16T04:59:32;29.02;56.39
66752;SHT31;53663;42.676;23.238;2023-07-16T05:01:57;29.79;54.64
66752;SHT31;53663;42.676;23.238;2023-07-16T05:04:23;30.57;51.91
66752;SHT31;53663;42.676;23.238;2023-07-16T05:06:48;31.16;50.72
66752;SHT31;53663;42.676;23.238;2023-07-16T05:09:14;31.74;49.03
66752;SHT31;53663;42.676;23.238;2023-07-16T05:11:39;31.91;48.31
66752;SHT31;53663;42.676;23.238;2023-07-16T05:14:05;31.86;48.41
66752;SHT31;53663;42.676;23.238;2023-07-16T05:16:30;31.21;49.45
66752;SHT31;53663;42.676;23.238;2023-07-16T05:18:56;31.21;49.61
66752;SHT31;53663;42.676;23.238;2023-07-16T05:21:21;31.10;49.61
66752;SHT31;53663;42.676;23.238;2023-07-16T05:23:47;30.85;49.70
66752;SHT31;53663;42.676;23.238;2023-07-16T05:26:12;30.63;50.14
66752;SHT31;53663;42.676;23.238;2023-07-16T05:28:38;30.80;51.25
66752;SHT31;53663;42.676;23.238;2023-07-16T05:31:03;30.90;50.25
66752;SHT31;53663;42.676;23.238;2023-07-16T05:33:29;30.44;50.32
66752;SHT31;53663;42.676;23.238;2023-07-16T05:35:54;30.39;51.81
66752;SHT31;53663;42.676;23.238;2023-07-16T05:38:21;29.95;53.55
66752;SHT31;53663;42.676;23.238;2023-07-16T05:40:46;30.12;53.13
66752;SHT31;53663;42.676;23.238;2023-07-16T05:43:12;29.88;53.83
66752;SHT31;53663;42.676;23.238;2023-07-16T05:45:38;30.13;53.37
66752;SHT31;53663;42.676;23.238;2023-07-16T05:48:04;30.32;53.33
66752;SHT31;53663;42.676;23.238;2023-07-16T05:50:29;30.19;53.23
66752;SHT31;53663;42.676;23.238;2023-07-16T05:52:55;30.02;53.67
66752;SHT31;53663;42.676;23.238;2023-07-16T05:55:20;29.82;54.53
66752;SHT31;53663;42.676;23.238;2023-07-16T05:57:46;29.64;52.72
66752;SHT31;53663;42.676;23.238;2023-07-16T06:00:12;29.79;52.98
66752;SHT31;53663;42.676;23.238;2023-07-16T06:02:42;29.62;52.68
66752;SHT31;53663;42.676;23.238;2023-07-16T06:05:07;29.91;52.58
66752;SHT31;53663;42.676;23.238;2023-07-16T06:07:33;29.82;51.88
66752;SHT31;53663;42.676;23.238;2023-07-16T06:09:59;29.78;51.40
66752;SHT31;53663;42.676;23.238;2023-07-16T06:12:24;30.04;49.80
66752;SHT31;53663;42.676;23.238;2023-07-16T06:14:50;29.60;51.16
66752;SHT31;53663;42.676;23.238;2023-07-16T06:17:15;29.79;51.32
66752;SHT31;53663;42.676;23.238;2023-07-16T06:19:41;29.91;51.67
66752;SHT31;53663;42.676;23.238;2023-07-16T06:22:06;30.09;50.73
66752;SHT31;53663;42.676;23.238;2023-07-16T06:24:34;30.10;50.45
66752;SHT31;53663;42.676;23.238;2023-07-16T06:26:59;30.10;51.13
66752;SHT31;53663;42.676;23.238;2023-07-16T06:29:25;30.22;50.86
66752;SHT31;53663;42.676;23.238;2023-07-16T06:31:55;30.37;51.46
66752;SHT31;53663;42.676;23.238;2023-07-16T06:34:22;30.26;50.09
66752;SHT31;53663;42.676;23.238;2023-07-16T06:36:48;30.40;51.30
66752;SHT31;53663;42.676;23.238;2023-07-16T06:39:13;30.04;51.08
66752;SHT31;53663;42.676;23.238;2023-07-16T06:41:39;30.26;50.12
66752;SHT31;53663;42.676;23.238;2023-07-16T06:44:07;30.19;50.94
66752;SHT31;53663;42.676;23.238;2023-07-16T06:46:33;30.39;49.84
66752;SHT31;53663;42.676;23.238;2023-07-16T06:48:58;30.77;49.44
66752;SHT31;53663;42.676;23.238;2023-07-16T06:51:24;30.47;50.63
66752;SHT31;53663;42.676;23.238;2023-07-16T06:53:49;30.60;51.31
66752;SHT31;53663;42.676;23.238;2023-07-16T06:56:15;30.66;49.70
66752;SHT31;53663;42.676;23.238;2023-07-16T06:58:41;30.80;48.67
66752;SHT31;53663;42.676;23.238;2023-07-16T07:01:06;30.88;48.84
66752;SHT31;53663;42.676;23.238;2023-07-16T07:03:32;30.61;50.75
66752;SHT31;53663;42.676;23.238;2023-07-16T07:06:03;30.77;51.80
66752;SHT31;53663;42.676;23.238;2023-07-16T07:08:31;30.95;48.60
66752;SHT31;53663;42.676;23.238;2023-07-16T07:10:57;30.88;49.52
66752;SHT31;53663;42.676;23.238;2023-07-16T07:13:23;31.05;50.19
66752;SHT31;53663;42.676;23.238;2023-07-16T07:15:49;30.84;50.45
66752;SHT31;53663;42.676;23.238;2023-07-16T07:18:14;30.97;49.30
66752;SHT31;53663;42.676;23.238;2023-07-16T07:20:40;30.99;49.94
66752;SHT31;53663;42.676;23.238;2023-07-16T07:23:05;31.53;48.90
66752;SHT31;53663;42.676;23.238;2023-07-16T07:25:31;31.76;47.87
66752;SHT31;53663;42.676;23.238;2023-07-16T07:27:56;31.72;48.03
66752;SHT31;53663;42.676;23.238;2023-07-16T07:30:22;31.45;49.94
66752;SHT31;53663;42.676;23.238;2023-07-16T07:32:48;31.65;48.82
66752;SHT31;53663;42.676;23.238;2023-07-16T07:35:13;31.86;47.60
66752;SHT31;53663;42.676;23.238;2023-07-16T07:37:39;31.72;47.43
66752;SHT31;53663;42.676;23.238;2023-07-16T07:40:05;31.76;48.22
66752;SHT31;53663;42.676;23.238;2023-07-16T07:42:31;31.94;47.82
66752;SHT31;53663;42.676;23.238;2023-07-16T07:44:56;31.96;48.26
66752;SHT31;53663;42.676;23.238;2023-07-16T07:47:22;31.91;47.50
66752;SHT31;53663;42.676;23.238;2023-07-16T07:49:47;31.80;47.40
66752;SHT31;53663;42.676;23.238;2023-07-16T07:52:13;31.87;48.07
66752;SHT31;53663;42.676;23.238;2023-07-16T07:54:38;32.04;47.68
66752;SHT31;53663;42.676;23.238;2023-07-16T07:57:04;32.11;48.73
66752;SHT31;53663;42.676;23.238;2023-07-16T07:59:30;32.47;47.29
66752;SHT31;53663;42.676;23.238;2023-07-16T08:01:57;32.49;46.23
66752;SHT31;53663;42.676;23.238;2023-07-16T08:04:23;32.03;46.92
66752;SHT31;53663;42.676;23.238;2023-07-16T08:06:50;31.89;47.08
66752;SHT31;53663;42.676;23.238;2023-07-16T08:09:15;31.90;48.45
66752;SHT31;53663;42.676;23.238;2023-07-16T08:11:41;31.89;47.89
66752;SHT31;53663;42.676;23.238;2023-07-16T08:14:07;31.98;47.30
66752;SHT31;53663;42.676;23.238;2023-07-16T08:16:32;32.20;47.65
66752;SHT31;53663;42.676;23.238;2023-07-16T08:18:58;32.24;46.44
66752;SHT31;53663;42.676;23.238;2023-07-16T08:21:23;32.06;46.65
66752;SHT31;53663;42.676;23.238;2023-07-16T08:23:49;31.74;47.74
66752;SHT31;53663;42.676;23.238;2023-07-16T08:26:15;31.89;46.62
66752;SHT31;53663;42.676;23.238;2023-07-16T08:28:40;31.73;47.65
66752;SHT31;53663;42.676;23.238;2023-07-16T08:31:06;31.90;47.89
66752;SHT31;53663;42.676;23.238;2023-07-16T08:33:31;32.30;46.33
66752;SHT31;53663;42.676;23.238;2023-07-16T08:35:56;31.66;47.03
66752;SHT31;53663;42.676;23.238;2023-07-16T08:38:22;32.01;46.86
66752;SHT31;53663;42.676;23.238;2023-07-16T08:40:48;31.98;46.56
66752;SHT31;53663;42.676;23.238;2023-07-16T08:43:16;32.00;46.79
66752;SHT31;53663;42.676;23.238;2023-07-16T08:45:42;31.94;46.64
66752;SHT31;53663;42.676;23.238;2023-07-16T08:48:10;32.01;46.83
66752;SHT31;53663;42.676;23.238;2023-07-16T08:50:37;32.25;47.43
66752;SHT31;53663;42.676;23.238;2023-07-16T08:53:06;32.49;45.93
66752;SHT31;53663;42.676;23.238;2023-07-16T08:55:32;32.80;46.79
66752;SHT31;53663;42.676;23.238;2023-07-16T08:57:58;33.02;46.76
66752;SHT31;53663;42.676;23.238;2023-07-16T09:00:27;33.05;47.18
66752;SHT31;53663;42.676;23.238;2023-07-16T09:02:54;32.82;45.65
66752;SHT31;53663;42.676;23.238;2023-07-16T09:05:22;32.94;46.58
66752;SHT31;53663;42.676;23.238;2023-07-16T09:07:49;33.17;44.50
66752;SHT31;53663;42.676;23.238;2023-07-16T09:10:15;33.05;46.69
66752;SHT31;53663;42.676;23.238;2023-07-16T09:12:44;32.90;45.31
66752;SHT31;53663;42.676;23.238;2023-07-16T09:15:11;33.22;44.28
66752;SHT31;53663;42.676;23.238;2023-07-16T09:17:36;33.40;44.18
66752;SHT31;53663;42.676;23.238;2023-07-16T09:20:03;33.29;42.98
66752;SHT31;53663;42.676;23.238;2023-07-16T09:22:29;33.17;45.03
66752;SHT31;53663;42.676;23.238;2023-07-16T09:24:55;33.30;44.47
66752;SHT31;53663;42.676;23.238;2023-07-16T09:27:28;33.23;43.23
66752;SHT31;53663;42.676;23.238;2023-07-16T09:29:54;33.17;44.30
66752;SHT31;53663;42.676;23.238;2023-07-16T09:32:19;33.13;44.11
66752;SHT31;53663;42.676;23.238;2023-07-16T09:34:49;33.03;43.47
66752;SHT31;53663;42.676;23.238;2023-07-16T09:37:15;32.90;44.85
66752;SHT31;53663;42.676;23.238;2023-07-16T09:39:45;32.98;44.33
66752;SHT31;53663;42.676;23.238;2023-07-16T09:42:11;33.17;44.23
66752;SHT31;53663;42.676;23.238;2023-07-16T09:44:37;33.25;45.60
66752;SHT31;53663;42.676;23.238;2023-07-16T09:47:03;33.34;43.29
66752;SHT31;53663;42.676;23.238;2023-07-16T09:49:29;33.33;44.81
66752;SHT31;53663;42.676;23.238;2023-07-16T09:51:57;33.31;45.02
66752;SHT31;53663;42.676;23.238;2023-07-16T09:54:25;33.33;44.93
66752;SHT31;53663;42.676;23.238;2023-07-16T09:56:55;33.43;45.00
66752;SHT31;53663;42.676;23.238;2023-07-16T09:59:25;33.43;45.38
66752;SHT31;53663;42.676;23.238;2023-07-16T10:01:53;33.55;44.43
66752;SHT31;53663;42.676;23.238;2023-07-16T10:04:19;33.81;43.19
66752;SHT31;53663;42.676;23.238;2023-07-16T10:09:41;33.84;42.17
66752;SHT31;53663;42.676;23.238;2023-07-16T10:12:18;33.70;41.79
66752;SHT31;53663;42.676;23.238;2023-07-16T10:14:55;33.80;44.71
66752;SHT31;53663;42.676;23.238;2023-07-16T10:17:24;34.00;42.57
66752;SHT31;53663;42.676;23.238;2023-07-16T10:19:55;34.08;42.95
66752;SHT31;53663;42.676;23.238;2023-07-16T10:22:35;34.16;43.39
66752;SHT31;53663;42.676;23.238;2023-07-16T10:25:26;34.39;41.72
66752;SHT31;53663;42.676;23.238;2023-07-16T10:27:53;34.49;41.00
66752;SHT31;53663;42.676;23.238;2023-07-16T10:30:19;34.42;41.29
66752;SHT31;53663;42.676;23.238;2023-07-16T10:32:45;34.36;41.14
66752;SHT31;53663;42.676;23.238;2023-07-16T10:35:10;34.39;41.78
66752;SHT31;53663;42.676;23.238;2023-07-16T10:37:37;34.43;41.98
66752;SHT31;53663;42.676;23.238;2023-07-16T10:40:04;34.56;42.82
66752;SHT31;53663;42.676;23.238;2023-07-16T10:42:31;34.64;41.63
66752;SHT31;53663;42.676;23.238;2023-07-16T10:45:04;34.40;40.99
66752;SHT31;53663;42.676;23.238;2023-07-16T10:47:34;34.46;40.83
66752;SHT31;53663;42.676;23.238;2023-07-16T10:50:02;34.56;40.56
66752;SHT31;53663;42.676;23.238;2023-07-16T10:52:28;34.57;39.48
66752;SHT31;53663;42.676;23.238;2023-07-16T10:54:53;34.42;40.16
66752;SHT31;53663;42.676;23.238;2023-07-16T10:57:22;34.39;40.02
66752;SHT31;53663;42.676;23.238;2023-07-16T10:59:48;34.36;41.52
66752;SHT31;53663;42.676;23.238;2023-07-16T11:02:16;34.45;40.82
66752;SHT31;53663;42.676;23.238;2023-07-16T11:04:46;34.70;41.20
66752;SHT31;53663;42.676;23.238;2023-07-16T11:07:13;34.96;39.62
66752;SHT31;53663;42.676;23.238;2023-07-16T11:09:47;34.98;41.36
66752;SHT31;53663;42.676;23.238;2023-07-16T11:12:14;34.79;38.92
66752;SHT31;53663;42.676;23.238;2023-07-16T11:14:45;33.81;40.82
66752;SHT31;53663;42.676;23.238;2023-07-16T11:17:12;33.78;41.92
66752;SHT31;53663;42.676;23.238;2023-07-16T11:19:38;33.84;39.59
66752;SHT31;53663;42.676;23.238;2023-07-16T11:22:06;33.73;38.98
66752;SHT31;53663;42.676;23.238;2023-07-16T11:24:41;33.84;39.72
66752;SHT31;53663;42.676;23.238;2023-07-16T11:27:17;34.00;40.87
66752;SHT31;53663;42.676;23.238;2023-07-16T11:29:57;34.11;40.66
66752;SHT31;53663;42.676;23.238;2023-07-16T11:34:55;34.25;39.82
66752;SHT31;53663;42.676;23.238;2023-07-16T11:37:21;33.92;40.26
66752;SHT31;53663;42.676;23.238;2023-07-16T11:39:46;34.02;41.98
66752;SHT31;53663;42.676;23.238;2023-07-16T11:42:13;34.02;40.33
66752;SHT31;53663;42.676;23.238;2023-07-16T11:44:38;33.98;40.96
66752;SHT31;53663;42.676;23.238;2023-07-16T11:47:04;34.13;38.05
66752;SHT31;53663;42.676;23.238;2023-07-16T11:49:29;34.01;39.55
66752;SHT31;53663;42.676;23.238;2023-07-16T11:51:56;33.98;41.57
66752;SHT31;53663;42.676;23.238;2023-07-16T11:54:22;33.71;38.31
66752;SHT31;53663;42.676;23.238;2023-07-16T11:56:48;33.88;38.22
66752;SHT31;53663;42.676;23.238;2023-07-16T11:59:13;33.97;38.01
66752;SHT31;53663;42.676;23.238;2023-07-16T12:01:39;34.05;38.74
66752;SHT31;53663;42.676;23.238;2023-07-16T12:04:04;34.16;37.80
66752;SHT31;53663;42.676;23.238;2023-07-16T12:06:30;34.23;38.08
66752;SHT31;53663;42.676;23.238;2023-07-16T12:08:55;34.29;38.01
66752;SHT31;53663;42.676;23.238;2023-07-16T12:11:21;34.55;38.03
66752;SHT31;53663;42.676;23.238;2023-07-16T12:13:47;34.49;37.93
66752;SHT31;53663;42.676;23.238;2023-07-16T12:16:13;34.50;37.29
66752;SHT31;53663;42.676;23.238;2023-07-16T12:18:38;34.11;35.65
66752;SHT31;53663;42.676;23.238;2023-07-16T12:21:04;34.22;38.55
66752;SHT31;53663;42.676;23.238;2023-07-16T12:23:31;34.35;37.20
66752;SHT31;53663;42.676;23.238;2023-07-16T12:25:56;34.29;37.42
66752;SHT31;53663;42.676;23.238;2023-07-16T12:28:22;34.25;36.51
66752;SHT31;53663;42.676;23.238;2023-07-16T12:30:47;34.45;37.64
66752;SHT31;53663;42.676;23.238;2023-07-16T12:33:13;34.57;36.76
66752;SHT31;53663;42.676;23.238;2023-07-16T12:35:38;34.67;38.28
66752;SHT31;53663;42.676;23.238;2023-07-16T12:38:04;34.59;36.95
66752;SHT31;53663;42.676;23.238;2023-07-16T12:40:30;34.43;38.71
66752;SHT31;53663;42.676;23.238;2023-07-16T12:42:56;34.59;37.69
66752;SHT31;53663;42.676;23.238;2023-07-16T12:45:21;34.59;37.75
66752;SHT31;53663;42.676;23.238;2023-07-16T12:47:47;34.38;39.16
66752;SHT31;53663;42.676;23.238;2023-07-16T12:50:12;34.31;38.90
66752;SHT31;53663;42.676;23.238;2023-07-16T12:52:38;34.28;37.64
66752;SHT31;53663;42.676;23.238;2023-07-16T12:55:04;34.32;37.65
66752;SHT31;53663;42.676;23.238;2023-07-16T12:57:29;34.26;37.38
66752;SHT31;53663;42.676;23.238;2023-07-16T12:59:55;34.32;33.67
66752;SHT31;53663;42.676;23.238;2023-07-16T13:02:20;34.23;34.37
66752;SHT31;53663;42.676;23.238;2023-07-16T13:04:46;34.32;34.28
66752;SHT31;53663;42.676;23.238;2023-07-16T13:07:11;34.38;33.47
66752;SHT31;53663;42.676;23.238;2023-07-16T13:09:38;34.46;34.21
66752;SHT31;53663;42.676;23.238;2023-07-16T13:12:04;34.60;35.03
66752;SHT31;53663;42.676;23.238;2023-07-16T13:14:29;34.73;35.45
66752;SHT31;53663;42.676;23.238;2023-07-16T13:16:55;34.67;34.46
66752;SHT31;53663;42.676;23.238;2023-07-16T13:19:20;34.80;34.88
66752;SHT31;53663;42.676;23.238;2023-07-16T13:21:45;34.84;34.41
66752;SHT31;53663;42.676;23.238;2023-07-16T13:24:11;34.87;36.31
66752;SHT31;53663;42.676;23.238;2023-07-16T13:26:37;34.82;36.25
66752;SHT31;53663;42.676;23.238;2023-07-16T13:29:02;34.94;35.40
66752;SHT31;53663;42.676;23.238;2023-07-16T13:31:28;35.08;35.19
66752;SHT31;53663;42.676;23.238;2023-07-16T13:33:53;34.93;36.04
66752;SHT31;53663;42.676;23.238;2023-07-16T13:36:19;35.01;35.33
66752;SHT31;53663;42.676;23.238;2023-07-16T13:38:44;35.08;36.39
66752;SHT31;53663;42.676;23.238;2023-07-16T13:41:10;35.11;35.41
66752;SHT31;53663;42.676;23.238;2023-07-16T13:43:35;35.04;36.01
66752;SHT31;53663;42.676;23.238;2023-07-16T13:46:01;35.03;35.87
66752;SHT31;53663;42.676;23.238;2023-07-16T13:48:26;35.03;35.12
66752;SHT31;53663;42.676;23.238;2023-07-16T13:50:52;35.10;35.48
66752;SHT31;53663;42.676;23.238;2023-07-16T13:53:17;35.27;35.93
66752;SHT31;53663;42.676;23.238;2023-07-16T13:55:43;35.31;36.55
66752;SHT31;53663;42.676;23.238;2023-07-16T13:58:09;35.25;36.30
66752;SHT31;53663;42.676;23.238;2023-07-16T14:00:36;35.14;35.80
66752;SHT31;53663;42.676;23.238;2023-07-16T14:03:02;35.06;36.82
66752;SHT31;53663;42.676;23.238;2023-07-16T14:05:28;35.08;35.29
66752;SHT31;53663;42.676;23.238;2023-07-16T14:07:54;35.00;35.73
66752;SHT31;53663;42.676;23.238;2023-07-16T14:10:19;35.01;35.89
66752;SHT31;53663;42.676;23.238;2023-07-16T14:12:45;35.04;35.87
66752;SHT31;53663;42.676;23.238;2023-07-16T14:15:10;35.03;35.39
66752;SHT31;53663;42.676;23.238;2023-07-16T14:17:36;35.08;35.98
66752;SHT31;53663;42.676;23.238;2023-07-16T14:20:01;35.04;35.07
66752;SHT31;53663;42.676;23.238;2023-07-16T14:22:27;35.01;35.65
66752;SHT31;53663;42.676;23.238;2023-07-16T14:24:53;34.91;34.87
66752;SHT31;53663;42.676;23.238;2023-07-16T14:27:19;34.90;35.15
66752;SHT31;53663;42.676;23.238;2023-07-16T14:29:45;34.70;35.18
66752;SHT31;53663;42.676;23.238;2023-07-16T14:32:11;34.66;36.36
66752;SHT31;53663;42.676;23.238;2023-07-16T14:34:37;34.74;35.22
66752;SHT31;53663;42.676;23.238;2023-07-16T14:37:02;34.83;35.33
66752;SHT31;53663;42.676;23.238;2023-07-16T14:39:29;34.70;37.35
66752;SHT31;53663;42.676;23.238;2023-07-16T14:41:55;34.76;34.84
66752;SHT31;53663;42.676;23.238;2023-07-16T14:44:20;34.83;34.52
66752;SHT31;53663;42.676;23.238;2023-07-16T14:46:46;34.69;34.86
66752;SHT31;53663;42.676;23.238;2023-07-16T14:49:11;34.57;35.33
66752;SHT31;53663;42.676;23.238;2023-07-16T14:51:37;34.63;35.25
66752;SHT31;53663;42.676;23.238;2023-07-16T14:54:07;34.70;35.40
66752;SHT31;53663;42.676;23.238;2023-07-16T14:56:33;34.69;36.38
66752;SHT31;53663;42.676;23.238;2023-07-16T14:58:59;34.55;34.77
66752;SHT31;53663;42.676;23.238;2023-07-16T15:01:24;34.49;35.32
66752;SHT31;53663;42.676;23.238;2023-07-16T15:03:50;34.26;35.98
66752;SHT31;53663;42.676;23.238;2023-07-16T15:06:15;34.13;35.42
66752;SHT31;53663;42.676;23.238;2023-07-16T15:08:41;34.02;36.44
66752;SHT31;53663;42.676;23.238;2023-07-16T15:11:06;33.85;36.38
66752;SHT31;53663;42.676;23.238;2023-07-16T15:13:32;33.98;36.33
66752;SHT31;53663;42.676;23.238;2023-07-16T15:15:58;34.01;37.27
66752;SHT31;53663;42.676;23.238;2023-07-16T15:18:24;33.95;35.81
66752;SHT31;53663;42.676;23.238;2023-07-16T15:20:56;33.91;36.67
66752;SHT31;53663;42.676;23.238;2023-07-16T15:23:22;33.84;37.12
66752;SHT31;53663;42.676;23.238;2023-07-16T15:25:47;33.87;36.45